AirNav   TITAN Aviation Fuels
 
 705 users online  

54OH Buehler Airport
Paulding, Ohio, USA

GOING TO PAULDING?


FAA INFORMATION EFFECTIVE 08 SEPTEMBER 2022

Location

FAA Identifier: 54OH
Lat/Long: 41-07-24.1770N 084-37-03.8350W
41-07.402950N 084-37.063917W
41.1233825,-84.6177319
(estimated)
Elevation: 728 ft. / 222 m (estimated)
Variation: 04W (1985)
From city: 2 miles SW of PAULDING, OH
Time zone: UTC -4 (UTC -5 during Standard Time)
Zip code: 45879

Airport Operations

Airport use: Private use. Permission required prior to landing
Activation date: 11/1960
Control tower: no
ARTCC: CHICAGO CENTER
FSS: CLEVELAND FLIGHT SERVICE STATION
Attendance: UNATNDD
Wind indicator: yes
Segmented circle: no

Airport Communications

WX ASOS at DFI (15 nm NE): 121.425 (419-658-2301)
WX AWOS-3 at VNW (16 nm S): 125.175 (419-232-2967)

Nearby radio navigation aids

VOR radial/distance  VOR name  Freq  Var
FWAr077/27.2FORT WAYNE VORTAC117.8006W

Airport Services

Airframe service: NONE
Powerplant service: NONE

Runway Information

Runway N/S

Dimensions: 1475 x 75 ft. / 450 x 23 m
Surface: turf
RUNWAY N  RUNWAY S
Traffic pattern: leftleft

Airport Ownership and Management from official FAA records

Ownership: Privately-owned
Owner: CHARLES BUEHLER
RR 2
PAULDING, OH 45879
Phone 419-399-4213

Airport Operational Statistics

Aircraft based on the field: 1
Single engine airplanes: 1
    

Additional Remarks

FOR CD CTC CHICAGO ARTCC AT 630-906-8921.

Instrument Procedures

There are no published instrument procedures at 54OH.

Some nearby airports with instrument procedures:

KDFI - Defiance Memorial Airport (15 nm NE)
KVNW - Van Wert County Airport (16 nm S)
0G6 - Williams County Airport (21 nm N)
KGWB - De Kalb County Airport (23 nm NW)
KSMD - Smith Field Airport (24 nm W)
 
Loc | Ops | Rwys | IFR | FBO | Links
Com | Nav | Svcs | Stats | Notes
Area around 54OH (Buehler Airport)
 
Road maps at: MapQuest Bing Google
 
Aerial photo
No photo
 
Sectional chart

 
Airport distance calculator
Flying to Buehler Airport? Find the distance to fly.

From to 54OH

Sunrise and sunset
Times for 04-Oct-2022
 Local
(UTC-4)
 Zulu
(UTC)
Morning civil twilight07:1211:12
Sunrise07:3911:39
Sunset19:1523:15
Evening civil twilight19:4323:43

Current date and time
Zulu (UTC)  04-Oct-2022 08:05:23
Local (UTC-4)  04-Oct-2022 04:05:23
 
METAR
KDFI 
15nm NE 
040753Z AUTO 00000KT 10SM CLR 02/01 A3027 RMK AO2 SLP251 T00220011 $
KVNW 
16nm S 
040755Z AUTO 00000KT 10SM CLR 00/00 A3027 RMK AO2
KGWB 
23nm NW 
040755Z AUTO 00000KT 10SM CLR 02/02 A3027 RMK AO2
KSMD 
24nm W 
040755Z AUTO RMK A01 PNO
KFWA 
28nm W 
040754Z 00000KT 10SM FEW250 02/01 A3027 RMK AO2 SLP250 I1000 T00220006
KOWX 
29nm E 
040755Z AUTO 00000KT 10SM CLR 01/M05 A3027 RMK AO1
TAF
KFWA 
28nm W 
040532Z 0406/0506 VRB03KT P6SM FEW250 TEMPO 0410/0413 3SM BR FM041700 36006KT P6SM FEW250
NOTAMs
Click for the latest NOTAMs
NOTAMs are issued by the DoD/FAA and will open in a separate window not controlled by AirNav.

 

 
 

Would you like to see your business listed on this page?

 If your business provides an interesting product or service to pilots, flight crews, aircraft, or users of the Buehler Airport, you should consider listing it here.  To start the listing process, click on the button below
 
Add a business
 

Other Pages about Buehler Airport

Update a link
 
Copyright © AirNav, LLC. All rights reserved. Privacy Policy  Contact